Time;durP1;ratioP1;P1;durP2;ratioP2;P2;SDS_P1;SDS_P2;PMS_P1;PMS_P2;Temp;Humidity;BMP_temperature;BMP_pressure;BME280_temperature;BME280_humidity;BME280_pressure;Samples;Min_cycle;Max_cycle;Signal;HPM_P1;HPM_P2
2022/09/14 00:01:21;;;;;;;1.77;1.67;;;;;;;19.42;57.76;94791.31;5031856;28;20264;-81
2022/09/14 00:03:51;;;;;;;3.95;2.05;;;;;;;19.47;57.61;94794.09;5025355;28;20293;-81
2022/09/14 00:06:16;;;;;;;2.50;2.20;;;;;;;19.46;57.40;94788.03;5048944;28;20297;-81
2022/09/14 00:08:42;;;;;;;4.63;2.55;;;;;;;19.42;57.85;94780.78;5024386;28;20212;-82
2022/09/14 00:11:10;;;;;;;3.53;2.10;;;;;;;19.40;57.96;94777.56;5035900;28;20186;-82
2022/09/14 00:13:36;;;;;;;5.70;2.28;;;;;;;19.45;58.12;94777.72;5037525;28;20196;-81
2022/09/14 00:16:07;;;;;;;2.30;2.03;;;;;;;19.38;58.42;94777.00;5041937;28;20215;-81
2022/09/14 00:18:33;;;;;;;3.40;2.08;;;;;;;19.29;59.61;94775.69;5044649;28;20209;-82
2022/09/14 00:21:01;;;;;;;4.65;1.95;;;;;;;19.37;59.19;94778.03;5028074;28;20273;-82
2022/09/14 00:23:26;;;;;;;1.90;1.80;;;;;;;19.34;59.52;94773.97;5042553;28;20575;-82
2022/09/14 00:25:51;;;;;;;3.95;2.00;;;;;;;19.42;59.49;94768.41;5037222;28;20301;-82
2022/09/14 00:28:17;;;;;;;2.10;1.60;;;;;;;19.38;59.85;94764.63;5026206;28;20766;-82
2022/09/14 00:30:42;;;;;;;1.75;1.65;;;;;;;19.43;60.02;94758.69;5042196;28;20207;-81
2022/09/14 00:33:08;;;;;;;3.17;1.98;;;;;;;19.56;59.64;94757.75;5026959;28;20225;-81
2022/09/14 00:35:34;;;;;;;2.80;1.80;;;;;;;19.56;59.58;94750.69;5040101;28;20270;-82
2022/09/14 00:38:00;;;;;;;3.30;1.90;;;;;;;19.59;59.42;94742.31;5038160;28;20212;-82
2022/09/14 00:40:25;;;;;;;3.17;1.50;;;;;;;19.58;59.67;94745.19;5038180;28;20183;-82
2022/09/14 00:42:50;;;;;;;2.97;2.10;;;;;;;19.60;59.96;94741.28;5049905;28;20186;-82
2022/09/14 00:45:20;;;;;;;4.15;1.95;;;;;;;19.64;59.58;94736.41;5042539;28;20225;-82
2022/09/14 00:47:51;;;;;;;3.78;1.95;;;;;;;19.63;59.57;94726.91;5039918;28;20190;-81
2022/09/14 00:50:17;;;;;;;2.22;1.90;;;;;;;19.60;59.50;94724.69;5046146;28;20695;-81
2022/09/14 00:52:45;;;;;;;3.70;1.63;;;;;;;19.60;59.81;94730.75;5039280;28;20254;-81
2022/09/14 00:55:13;;;;;;;3.28;1.60;;;;;;;19.59;60.06;94712.56;5032465;28;20207;-81
2022/09/14 00:57:46;;;;;;;3.67;1.70;;;;;;;19.58;59.73;94701.22;5024390;28;20231;-81
2022/09/14 01:00:15;;;;;;;4.15;1.55;;;;;;;19.55;60.01;94698.22;5044471;28;20182;-81
2022/09/14 01:02:41;;;;;;;2.10;2.00;;;;;;;19.50;60.62;94709.41;5026513;28;20259;-81
2022/09/14 01:05:08;;;;;;;2.80;1.63;;;;;;;19.44;61.57;94703.22;5024267;28;20219;-81
2022/09/14 01:08:08;;;;;;;3.10;1.70;;;;;;;19.41;62.35;94690.47;5020079;28;20210;-82
2022/09/14 01:10:54;;;;;;;2.40;1.80;;;;;;;19.31;65.05;94690.19;5030187;28;20194;-81
2022/09/14 01:13:29;;;;;;;2.83;1.95;;;;;;;19.23;66.01;94682.59;5048005;28;20245;-82
2022/09/14 01:16:02;;;;;;;2.40;2.20;;;;;;;19.18;67.11;94674.59;5026223;28;20209;-81
2022/09/14 01:18:34;;;;;;;5.70;2.13;;;;;;;19.18;67.49;94682.50;5023776;28;20205;-81
2022/09/14 01:21:09;;;;;;;2.10;2.00;;;;;;;19.14;69.35;94700.53;5028848;28;20288;-81
2022/09/14 01:23:56;;;;;;;3.90;2.22;;;;;;;19.00;72.31;94727.22;5040224;28;20236;-81
2022/09/14 01:26:42;;;;;;;5.53;2.50;;;;;;;18.82;75.77;94794.59;5020975;28;20206;-81
2022/09/14 01:29:33;;;;;;;4.20;2.30;;;;;;;18.25;77.42;94842.94;5039106;28;20181;-82
2022/09/14 01:32:03;;;;;;;4.47;2.45;;;;;;;18.04;81.94;94842.25;5043078;28;20220;-82
2022/09/14 01:34:45;;;;;;;4.10;2.83;;;;;;;17.80;89.40;94856.09;5029645;28;20194;-81
2022/09/14 01:37:13;;;;;;;3.88;2.38;;;;;;;17.75;91.75;94845.41;5025878;28;20202;-81
2022/09/14 01:39:45;;;;;;;5.40;3.30;;;;;;;17.81;93.55;94808.63;5021818;28;20228;-81
2022/09/14 01:42:13;;;;;;;5.90;3.30;;;;;;;17.83;95.20;94788.19;5027981;28;20196;-81
2022/09/14 01:44:45;;;;;;;6.40;2.70;;;;;;;17.77;95.42;94794.31;5025052;28;20192;-81
2022/09/14 01:47:16;;;;;;;7.15;3.08;;;;;;;17.75;96.08;94779.75;5025565;28;20186;-81
2022/09/14 01:49:47;;;;;;;4.65;3.22;;;;;;;17.54;97.30;94786.09;5030344;28;20190;-81
2022/09/14 01:52:20;;;;;;;6.90;3.58;;;;;;;17.58;98.21;94787.31;5038232;28;20182;-81
2022/09/14 01:54:53;;;;;;;4.20;3.28;;;;;;;17.67;96.86;94796.56;5018972;28;20249;-81
2022/09/14 01:57:38;;;;;;;5.43;3.50;;;;;;;17.68;97.81;94787.66;5031637;28;20218;-81
2022/09/14 02:00:10;;;;;;;6.18;3.45;;;;;;;17.69;97.54;94788.47;5027812;28;20190;-81
2022/09/14 02:02:45;;;;;;;4.65;3.45;;;;;;;17.56;97.71;94790.13;5040071;28;20188;-81
2022/09/14 02:05:23;;;;;;;5.60;3.35;;;;;;;17.54;97.31;94794.78;5030459;28;20585;-81
2022/09/14 02:07:48;;;;;;;4.50;3.50;;;;;;;17.64;96.63;94773.31;5030348;28;20189;-81
2022/09/14 02:10:15;;;;;;;5.72;3.15;;;;;;;17.53;95.72;94784.50;5051589;28;20190;-81
2022/09/14 02:12:41;;;;;;;3.30;3.00;;;;;;;17.44;95.82;94772.63;5073128;28;20178;-82
2022/09/14 02:15:08;;;;;;;4.88;3.35;;;;;;;17.48;96.53;94776.44;5064191;28;20310;-82
2022/09/14 02:17:34;;;;;;;3.83;3.30;;;;;;;17.49;97.01;94778.88;5018713;28;20230;-81
2022/09/14 02:20:01;;;;;;;4.47;3.28;;;;;;;17.52;96.57;94785.50;5044251;28;20731;-81
2022/09/14 02:22:27;;;;;;;4.72;3.05;;;;;;;17.54;95.79;94786.09;5044074;28;20182;-81
2022/09/14 02:24:53;;;;;;;6.03;4.03;;;;;;;17.27;97.52;94786.19;5042554;28;20702;-81
2022/09/14 02:27:19;;;;;;;4.85;3.40;;;;;;;17.30;98.21;94776.28;5049166;28;20182;-81
2022/09/14 02:29:44;;;;;;;5.65;4.00;;;;;;;17.27;97.39;94770.47;5030757;28;20190;-81
2022/09/14 02:32:23;;;;;;;5.05;3.63;;;;;;;17.20;98.37;94761.81;5047692;28;20603;-80
2022/09/14 02:35:10;;;;;;;5.68;4.72;;;;;;;16.99;100.00;94748.97;5038214;28;20253;-81
2022/09/14 02:37:49;;;;;;;4.85;4.28;;;;;;;17.27;98.81;94751.28;5049883;28;20630;-81
2022/09/14 02:40:33;;;;;;;4.53;4.13;;;;;;;17.23;98.82;94752.72;5023146;28;20190;-81
2022/09/14 02:43:09;;;;;;;4.63;4.13;;;;;;;17.19;98.82;94751.53;5035702;28;20187;-81
2022/09/14 02:45:45;;;;;;;6.45;4.50;;;;;;;17.04;100.00;94751.75;5046755;28;20216;-81
2022/09/14 02:48:21;;;;;;;5.43;4.32;;;;;;;17.15;100.00;94755.59;5037188;28;20186;-81
2022/09/14 02:50:51;;;;;;;4.95;4.43;;;;;;;17.18;99.80;94740.22;5054710;28;20562;-81
2022/09/14 02:53:28;;;;;;;6.82;4.25;;;;;;;17.00;100.00;94734.84;5042259;28;20201;-81
2022/09/14 02:55:59;;;;;;;4.50;3.85;;;;;;;17.12;100.00;94727.94;5035584;28;20229;-81
2022/09/14 02:58:33;;;;;;;4.72;4.00;;;;;;;17.13;100.00;94729.53;5042806;28;20189;-81
2022/09/14 03:00:59;;;;;;;5.15;4.65;;;;;;;16.94;100.00;94712.06;5046834;28;20185;-81
2022/09/14 03:03:24;;;;;;;5.43;3.97;;;;;;;17.26;100.00;94687.50;5045277;28;20209;-81
2022/09/14 03:05:50;;;;;;;4.40;4.00;;;;;;;17.31;100.00;94684.25;5021947;28;20198;-81
2022/09/14 03:08:15;;;;;;;5.93;4.32;;;;;;;17.23;100.00;94677.44;5018836;28;20194;-81
2022/09/14 03:10:42;;;;;;;4.82;4.20;;;;;;;17.25;100.00;94679.84;5031886;28;20197;-81
2022/09/14 03:13:08;;;;;;;4.85;4.43;;;;;;;17.22;100.00;94680.25;5042102;28;20686;-81
2022/09/14 03:15:34;;;;;;;9.07;4.82;;;;;;;17.17;100.00;94682.72;5027694;28;20233;-81
2022/09/14 03:17:59;;;;;;;4.90;4.00;;;;;;;17.22;100.00;94678.44;5047755;28;20201;-81
2022/09/14 03:20:27;;;;;;;4.55;3.75;;;;;;;17.22;100.00;94665.31;5048228;28;20182;-81
2022/09/14 03:22:52;;;;;;;6.03;3.80;;;;;;;17.20;100.00;94671.78;5036457;28;20197;-82
2022/09/14 03:25:18;;;;;;;8.07;3.75;;;;;;;17.26;100.00;94677.03;5039330;28;20613;-82
2022/09/14 03:27:48;;;;;;;7.88;4.50;;;;;;;17.41;100.00;94683.81;5028090;28;20178;-82
2022/09/14 03:30:13;;;;;;;5.07;3.40;;;;;;;17.49;100.00;94659.91;5032562;28;20186;-82
2022/09/14 03:32:38;;;;;;;3.78;3.40;;;;;;;17.58;100.00;94668.34;5046587;28;20686;-82
2022/09/14 03:35:04;;;;;;;3.83;3.15;;;;;;;17.61;100.00;94655.63;5025155;28;20249;-82
2022/09/14 03:37:30;;;;;;;5.18;3.80;;;;;;;17.59;100.00;94659.47;5045105;28;20214;-82
2022/09/14 03:39:55;;;;;;;4.03;3.55;;;;;;;17.58;100.00;94658.69;5022024;28;20205;-82
2022/09/14 03:42:20;;;;;;;4.35;3.80;;;;;;;17.52;100.00;94662.13;5045901;28;20190;-82
2022/09/14 03:44:46;;;;;;;4.15;3.13;;;;;;;17.49;100.00;94665.16;5031619;28;20193;-82
2022/09/14 03:47:11;;;;;;;4.78;3.80;;;;;;;17.47;100.00;94668.00;5048772;28;20170;-82
2022/09/14 03:49:36;;;;;;;3.47;3.17;;;;;;;17.56;100.00;94671.19;5050996;28;20194;-82
2022/09/14 03:52:02;;;;;;;6.68;4.10;;;;;;;17.47;100.00;94662.75;5027925;28;20183;-82
2022/09/14 03:54:28;;;;;;;5.57;4.03;;;;;;;17.54;100.00;94646.97;5044207;28;20213;-82
2022/09/14 03:56:53;;;;;;;4.00;3.65;;;;;;;17.59;100.00;94649.78;5036469;28;20259;-82
2022/09/14 03:59:19;;;;;;;5.45;3.60;;;;;;;17.67;100.00;94648.69;5046901;28;20205;-82
2022/09/14 04:01:45;;;;;;;3.70;3.40;;;;;;;17.55;100.00;94640.72;5043893;28;20191;-82
2022/09/14 04:04:10;;;;;;;4.40;3.70;;;;;;;17.69;100.00;94641.44;5052205;28;20197;-82
2022/09/14 04:06:35;;;;;;;5.07;4.00;;;;;;;17.55;100.00;94641.50;5045433;28;20270;-82
2022/09/14 04:09:01;;;;;;;6.15;3.42;;;;;;;17.54;100.00;94646.97;5026658;28;20197;-81
2022/09/14 04:11:27;;;;;;;5.88;3.50;;;;;;;17.67;100.00;94654.78;5043086;28;20690;-81
2022/09/14 04:13:53;;;;;;;6.15;3.70;;;;;;;17.55;100.00;94644.13;5030687;28;20228;-81
2022/09/14 04:16:19;;;;;;;5.15;4.22;;;;;;;17.64;100.00;94646.50;5041483;28;20234;-81
2022/09/14 04:18:45;;;;;;;4.18;3.75;;;;;;;17.64;100.00;94639.44;5047521;28;20284;-82
2022/09/14 04:21:16;;;;;;;5.85;4.32;;;;;;;17.67;100.00;94646.06;5036453;28;20209;-82
2022/09/14 04:23:41;;;;;;;4.68;3.83;;;;;;;17.77;100.00;94638.56;5021019;28;20834;-81
2022/09/14 04:26:11;;;;;;;4.13;3.72;;;;;;;17.77;100.00;94642.00;5023857;28;20198;-81
2022/09/14 04:28:37;;;;;;;3.70;3.40;;;;;;;17.87;100.00;94645.97;5041963;28;20201;-81
2022/09/14 04:31:02;;;;;;;4.03;3.63;;;;;;;17.89;100.00;94643.94;5043951;28;20177;-82
2022/09/14 04:33:29;;;;;;;4.15;3.30;;;;;;;17.90;100.00;94653.41;5041297;28;20194;-81
2022/09/14 04:36:03;;;;;;;4.57;3.60;;;;;;;17.92;100.00;94669.75;5019258;28;20285;-83
2022/09/14 04:38:29;;;;;;;4.70;3.80;;;;;;;17.94;100.00;94678.25;5023249;28;20320;-81
2022/09/14 04:40:55;;;;;;;4.90;3.70;;;;;;;17.97;100.00;94688.31;5048395;28;20244;-79
2022/09/14 04:43:20;;;;;;;4.20;3.80;;;;;;;17.94;100.00;94699.25;5030908;28;20181;-79
2022/09/14 04:45:46;;;;;;;5.00;3.70;;;;;;;17.95;100.00;94706.91;5028470;28;20276;-79
2022/09/14 04:48:11;;;;;;;5.28;3.92;;;;;;;17.90;100.00;94703.31;5024093;28;20842;-79
2022/09/14 04:50:36;;;;;;;5.45;4.30;;;;;;;17.89;100.00;94707.75;5040391;28;20195;-80
2022/09/14 04:53:02;;;;;;;4.55;4.15;;;;;;;17.98;100.00;94701.22;5020050;28;20190;-80
2022/09/14 04:55:27;;;;;;;5.22;4.00;;;;;;;17.94;100.00;94688.75;5038857;28;20256;-80
2022/09/14 04:57:53;;;;;;;7.25;4.63;;;;;;;17.89;100.00;94681.50;5044061;28;20197;-80
2022/09/14 05:00:18;;;;;;;5.20;4.43;;;;;;;17.91;100.00;94681.28;5026416;28;20212;-80
2022/09/14 05:02:43;;;;;;;5.03;4.50;;;;;;;17.83;100.00;94671.84;5023601;28;20181;-80
2022/09/14 05:05:09;;;;;;;6.38;5.65;;;;;;;17.75;100.00;94669.47;5035647;28;20763;-80
2022/09/14 05:07:34;;;;;;;6.53;5.05;;;;;;;17.70;100.00;94669.31;5021232;28;20187;-81
2022/09/14 05:09:59;;;;;;;6.07;4.65;;;;;;;17.75;100.00;94670.28;5038421;28;20194;-79
2022/09/14 05:12:24;;;;;;;7.07;4.68;;;;;;;17.79;100.00;94681.97;5025489;28;20233;-79
2022/09/14 05:14:50;;;;;;;5.93;5.03;;;;;;;17.82;100.00;94675.47;5030895;28;20209;-80
2022/09/14 05:17:18;;;;;;;5.85;4.65;;;;;;;17.83;100.00;94677.91;5037819;28;20698;-79
2022/09/14 05:19:43;;;;;;;5.35;4.85;;;;;;;17.79;100.00;94675.91;5021696;28;20201;-80
2022/09/14 05:22:09;;;;;;;5.43;4.93;;;;;;;17.72;100.00;94675.97;5019555;28;20182;-81
2022/09/14 05:24:34;;;;;;;4.88;4.47;;;;;;;17.94;100.00;94676.41;5020395;28;20621;-80
2022/09/14 05:26:59;;;;;;;5.78;4.65;;;;;;;17.96;100.00;94671.75;5024381;28;20216;-80
2022/09/14 05:29:25;;;;;;;5.13;4.55;;;;;;;17.97;100.00;94677.81;5032114;28;20182;-80
2022/09/14 05:31:50;;;;;;;5.93;4.18;;;;;;;17.94;100.00;94678.25;5040226;28;20240;-82
2022/09/14 05:34:15;;;;;;;4.93;4.25;;;;;;;18.15;100.00;94683.13;5037744;28;20182;-81
2022/09/14 05:36:41;;;;;;;4.88;4.38;;;;;;;18.21;100.00;94687.53;5035139;28;20245;-81
2022/09/14 05:39:07;;;;;;;6.80;4.40;;;;;;;18.26;100.00;94682.41;5026545;28;20191;-81
2022/09/14 05:41:32;;;;;;;5.50;4.95;;;;;;;18.36;100.00;94685.34;5040877;28;20238;-77
2022/09/14 05:43:58;;;;;;;5.40;4.05;;;;;;;18.46;100.00;94676.94;5040319;28;20191;-77
2022/09/14 05:46:23;;;;;;;6.30;4.50;;;;;;;18.56;100.00;94684.38;5027369;28;20217;-81
2022/09/14 05:48:50;;;;;;;4.32;3.92;;;;;;;18.54;100.00;94667.97;5027640;28;20187;-80
2022/09/14 05:51:21;;;;;;;7.43;4.30;;;;;;;18.69;100.00;94671.09;5035524;28;20989;-80
2022/09/14 05:53:48;;;;;;;5.35;4.15;;;;;;;18.82;100.00;94668.34;5038073;28;20200;-80
2022/09/14 05:56:14;;;;;;;4.90;4.00;;;;;;;18.91;100.00;94677.53;5046954;28;20233;-81
2022/09/14 05:58:40;;;;;;;6.63;4.45;;;;;;;19.00;100.00;94679.88;5025081;28;20225;-80
2022/09/14 06:01:08;;;;;;;6.00;3.97;;;;;;;19.10;100.00;94688.84;5027416;28;20651;-80
2022/09/14 06:03:33;;;;;;;7.53;4.20;;;;;;;19.17;100.00;94699.28;5044519;28;20175;-80
2022/09/14 06:05:59;;;;;;;7.35;4.78;;;;;;;19.21;100.00;94692.56;5031620;28;20257;-80
2022/09/14 06:08:24;;;;;;;5.47;4.00;;;;;;;19.18;100.00;94700.91;5039629;28;20185;-80
2022/09/14 06:10:49;;;;;;;9.98;4.00;;;;;;;19.28;100.00;94693.28;5037310;28;20190;-80
2022/09/14 06:13:15;;;;;;;5.35;4.50;;;;;;;19.37;99.69;94699.84;5025708;28;20187;-80
2022/09/14 06:15:40;;;;;;;4.60;3.92;;;;;;;19.41;99.45;94706.25;5043608;28;20307;-80
2022/09/14 06:18:05;;;;;;;4.63;4.22;;;;;;;19.35;99.83;94707.19;5041302;28;20194;-80
2022/09/14 06:20:30;;;;;;;8.88;4.55;;;;;;;19.41;99.52;94711.53;5040341;28;20196;-79
2022/09/14 06:22:56;;;;;;;7.68;4.60;;;;;;;19.40;99.96;94715.19;5039315;28;20197;-79
2022/09/14 06:25:22;;;;;;;5.88;4.85;;;;;;;19.32;100.00;94706.78;5038364;28;20213;-80
2022/09/14 06:27:47;;;;;;;9.55;5.35;;;;;;;19.33;100.00;94703.94;5036874;28;20178;-80
2022/09/14 06:30:13;;;;;;;5.85;4.70;;;;;;;19.27;100.00;94710.09;5006146;28;20647;-81
2022/09/14 06:32:38;;;;;;;4.88;4.38;;;;;;;19.13;100.00;94701.56;5019511;28;20667;-80
2022/09/14 06:35:04;;;;;;;4.75;4.28;;;;;;;19.08;100.00;94690.91;4999133;28;20218;-80
2022/09/14 06:37:29;;;;;;;4.90;4.50;;;;;;;19.14;100.00;94684.75;5014213;28;20202;-80
2022/09/14 06:39:54;;;;;;;5.25;3.95;;;;;;;19.11;100.00;94694.91;5018987;28;20194;-81
2022/09/14 06:42:20;;;;;;;5.80;4.40;;;;;;;19.11;100.00;94687.03;5021559;28;20584;-80
2022/09/14 06:44:46;;;;;;;5.47;4.63;;;;;;;19.29;100.00;94694.09;5023184;28;20293;-80
2022/09/14 06:47:11;;;;;;;6.90;4.80;;;;;;;19.34;100.00;94684.47;4999733;28;20222;-80
2022/09/14 06:49:36;;;;;;;7.60;4.93;;;;;;;19.32;100.00;94681.28;5015386;28;20188;-81
2022/09/14 06:52:02;;;;;;;5.20;4.70;;;;;;;19.60;97.80;94682.56;4999306;28;20183;-80
2022/09/14 06:54:27;;;;;;;5.93;3.92;;;;;;;19.55;97.11;94679.78;5042814;28;20187;-80
2022/09/14 06:56:53;;;;;;;7.05;4.03;;;;;;;19.74;96.27;94681.34;5051561;28;20214;-80
2022/09/14 06:59:19;;;;;;;6.32;3.80;;;;;;;19.81;95.74;94684.69;5038026;28;20203;-81
2022/09/14 07:01:45;;;;;;;6.43;4.40;;;;;;;19.64;95.68;94689.78;5048938;28;20191;-80
2022/09/14 07:04:10;;;;;;;7.05;3.80;;;;;;;19.66;95.46;94687.72;5028953;28;20269;-81
2022/09/14 07:06:47;;;;;;;6.65;3.30;;;;;;;19.68;94.67;94695.41;5021373;28;20240;-81
2022/09/14 07:09:13;;;;;;;5.18;3.05;;;;;;;19.90;93.52;94688.59;5010620;28;20178;-81
2022/09/14 07:11:39;;;;;;;4.13;3.10;;;;;;;19.99;93.74;94694.34;5010208;28;20195;-81
2022/09/14 07:14:05;;;;;;;7.88;2.83;;;;;;;20.09;92.49;94703.31;5011518;28;20187;-81
2022/09/14 07:16:32;;;;;;;6.20;3.03;;;;;;;20.26;90.98;94702.63;5031162;28;20920;-81
2022/09/14 07:19:00;;;;;;;3.13;2.83;;;;;;;20.52;88.70;94710.13;5030211;28;20179;-81
2022/09/14 07:21:26;;;;;;;5.75;2.97;;;;;;;20.20;89.94;94704.34;5035391;28;20225;-81
2022/09/14 07:23:52;;;;;;;3.97;2.92;;;;;;;20.26;90.15;94700.81;5025543;28;20222;-81
2022/09/14 07:26:20;;;;;;;4.00;3.13;;;;;;;20.47;89.65;94707.38;5020099;28;20205;-81
2022/09/14 07:28:48;;;;;;;6.88;3.10;;;;;;;20.64;88.81;94703.00;5013272;28;20241;-81
2022/09/14 07:31:28;;;;;;;3.25;2.92;;;;;;;20.71;88.50;94702.09;5016667;28;20211;-81
2022/09/14 07:33:56;;;;;;;3.22;2.58;;;;;;;20.39;88.78;94699.78;5020424;28;20581;-81
2022/09/14 07:36:23;;;;;;;5.82;3.03;;;;;;;20.79;87.83;94693.84;5036304;28;20209;-81
2022/09/14 07:38:48;;;;;;;6.10;3.10;;;;;;;21.00;86.17;94705.63;5015155;28;20656;-81
2022/09/14 07:41:13;;;;;;;3.50;2.60;;;;;;;21.03;85.92;94703.31;5032605;28;20214;-80
2022/09/14 07:43:39;;;;;;;4.80;2.72;;;;;;;20.88;86.58;94719.63;5038769;28;20190;-80
2022/09/14 07:46:04;;;;;;;3.20;2.50;;;;;;;21.08;86.21;94721.91;5045603;28;20206;-80
2022/09/14 07:48:31;;;;;;;3.40;2.38;;;;;;;21.34;84.79;94731.16;5025117;28;20285;-80
2022/09/14 07:51:05;;;;;;;6.15;2.85;;;;;;;21.53;83.55;94723.06;5027054;28;20675;-78
2022/09/14 07:53:31;;;;;;;4.68;2.58;;;;;;;21.22;84.59;94733.00;5031343;28;20185;-79
2022/09/14 07:55:59;;;;;;;5.07;2.80;;;;;;;21.20;84.24;94725.31;5010574;28;20218;-79
2022/09/14 07:58:25;;;;;;;6.28;3.20;;;;;;;21.25;83.87;94723.81;5016766;28;20324;-79
2022/09/14 08:00:50;;;;;;;4.22;2.55;;;;;;;20.96;84.18;94734.31;5023361;28;20642;-79
2022/09/14 08:03:15;;;;;;;4.40;2.85;;;;;;;21.01;85.03;94739.69;5028343;28;20182;-79
2022/09/14 08:05:41;;;;;;;3.20;2.78;;;;;;;21.17;85.04;94754.00;5022769;28;20207;-79
2022/09/14 08:08:06;;;;;;;3.90;2.58;;;;;;;21.18;86.07;94751.13;5036854;28;20198;-79
2022/09/14 08:10:34;;;;;;;5.18;2.90;;;;;;;21.22;85.60;94746.22;5017698;28;20227;-80
2022/09/14 08:12:59;;;;;;;3.97;3.25;;;;;;;21.46;84.76;94750.41;5027958;28;20191;-80
2022/09/14 08:15:24;;;;;;;4.75;3.17;;;;;;;21.79;82.47;94754.22;5011742;28;20217;-80
2022/09/14 08:17:50;;;;;;;4.30;2.92;;;;;;;21.83;81.95;94763.28;5027833;28;20181;-82
2022/09/14 08:20:15;;;;;;;4.65;2.92;;;;;;;21.57;83.79;94772.56;5024359;28;20191;-81
2022/09/14 08:22:44;;;;;;;7.53;2.80;;;;;;;21.45;83.75;94779.69;5025654;28;20187;-81
2022/09/14 08:25:10;;;;;;;5.22;2.80;;;;;;;21.32;83.89;94787.91;5017471;28;20218;-81
2022/09/14 08:27:35;;;;;;;3.88;2.95;;;;;;;21.22;84.77;94791.09;5031721;28;20187;-80
2022/09/14 08:30:01;;;;;;;4.63;2.85;;;;;;;20.99;86.18;94806.94;5032195;28;20205;-81
2022/09/14 08:32:26;;;;;;;5.03;3.13;;;;;;;21.12;86.84;94806.72;5028211;28;20281;-81
2022/09/14 08:34:51;;;;;;;6.50;2.80;;;;;;;20.94;85.79;94799.72;5020399;28;20182;-81
2022/09/14 08:37:17;;;;;;;2.85;2.50;;;;;;;21.00;86.02;94788.22;5036640;28;20222;-81
2022/09/14 08:39:42;;;;;;;4.03;2.83;;;;;;;20.91;85.66;94789.63;5048252;28;20163;-80
2022/09/14 08:42:13;;;;;;;4.95;2.85;;;;;;;20.80;86.34;94791.22;5040154;28;20701;-81
2022/09/14 08:44:42;;;;;;;7.38;2.70;;;;;;;21.20;85.67;94791.34;5023465;28;20183;-81
2022/09/14 08:47:14;;;;;;;4.88;2.63;;;;;;;21.34;85.16;94804.31;5027782;28;20194;-81
2022/09/14 08:49:50;;;;;;;5.20;2.90;;;;;;;21.62;84.01;94812.28;5017075;28;20248;-81
2022/09/14 08:52:35;;;;;;;3.47;2.35;;;;;;;21.93;82.96;94808.41;5034380;28;20277;-80
2022/09/14 08:55:20;;;;;;;5.03;2.60;;;;;;;22.03;82.47;94810.44;5026326;28;20210;-81
2022/09/14 08:57:57;;;;;;;3.70;2.75;;;;;;;21.92;81.21;94804.16;5043057;28;20198;-81
2022/09/14 09:00:36;;;;;;;4.00;2.70;;;;;;;21.73;81.69;94794.78;5033535;28;20714;-81
2022/09/14 09:03:38;;;;;;;4.53;2.17;;;;;;;21.88;81.53;94781.84;5019011;28;20191;-81
2022/09/14 09:06:42;;;;;;;3.03;2.40;;;;;;;21.95;80.16;94785.16;5026802;28;20198;-81
2022/09/14 09:09:18;;;;;;;5.32;2.30;;;;;;;22.16;80.79;94791.66;5020617;28;20229;-81
2022/09/14 09:11:47;;;;;;;2.75;2.08;;;;;;;22.44;79.59;94797.94;5029009;28;20626;-81
2022/09/14 09:14:22;;;;;;;4.20;2.30;;;;;;;22.75;78.56;94802.69;5013080;28;20201;-81
2022/09/14 09:16:50;;;;;;;3.33;1.92;;;;;;;22.52;79.00;94802.81;5028217;28;20241;-81
2022/09/14 09:19:20;;;;;;;6.32;2.83;;;;;;;22.57;79.39;94803.72;5027951;28;20193;-81
2022/09/14 09:21:47;;;;;;;5.15;2.42;;;;;;;22.79;80.15;94803.81;5017411;28;20195;-81
2022/09/14 09:24:32;;;;;;;5.03;2.10;;;;;;;22.99;76.86;94794.59;5026970;28;20210;-81
2022/09/14 09:26:58;;;;;;;3.38;2.38;;;;;;;23.16;76.55;94790.88;5036096;28;20216;-82
2022/09/14 09:29:23;;;;;;;3.85;2.42;;;;;;;22.95;75.23;94793.47;5016912;28;20182;-80
2022/09/14 09:31:53;;;;;;;3.20;2.40;;;;;;;22.64;76.35;94786.91;5013742;28;20579;-80
2022/09/14 09:34:28;;;;;;;3.25;2.38;;;;;;;22.94;75.44;94789.22;5019893;28;20198;-80
2022/09/14 09:36:59;;;;;;;4.30;2.25;;;;;;;23.23;75.20;94790.69;5021439;28;20213;-80
2022/09/14 09:39:25;;;;;;;3.95;2.22;;;;;;;23.05;74.36;94770.56;5037012;28;20210;-81
2022/09/14 09:42:02;;;;;;;3.58;2.42;;;;;;;22.85;74.33;94762.34;5020540;28;20182;-80
2022/09/14 09:44:28;;;;;;;3.58;2.70;;;;;;;23.05;73.99;94760.00;5033108;28;20186;-81
2022/09/14 09:46:55;;;;;;;5.05;2.22;;;;;;;23.55;72.85;94756.38;5014696;28;20694;-81
2022/09/14 09:49:25;;;;;;;3.78;2.47;;;;;;;23.79;72.05;94740.25;5006095;28;20535;-81
2022/09/14 09:51:51;;;;;;;4.18;2.50;;;;;;;24.01;72.06;94743.66;5025416;28;20234;-81
2022/09/14 09:54:27;;;;;;;3.72;2.72;;;;;;;24.18;70.28;94744.34;5022936;28;20545;-81
2022/09/14 09:57:30;;;;;;;4.78;2.50;;;;;;;23.71;71.20;94726.41;5014092;28;20206;-81
2022/09/14 10:00:22;;;;;;;3.83;2.33;;;;;;;23.63;70.32;94737.44;5025655;28;20228;-80
2022/09/14 10:02:47;;;;;;;4.75;2.40;;;;;;;23.40;71.25;94733.16;5028374;28;20206;-81
2022/09/14 10:05:13;;;;;;;7.43;2.88;;;;;;;23.74;70.33;94743.63;5020178;28;20206;-80
2022/09/14 10:07:49;;;;;;;3.13;2.58;;;;;;;23.81;69.62;94738.16;5023408;28;20249;-81
2022/09/14 10:10:21;;;;;;;3.95;2.50;;;;;;;23.79;70.64;94738.41;5009177;28;20293;-81
2022/09/14 10:12:49;;;;;;;6.30;2.60;;;;;;;23.66;69.86;94736.13;5040772;28;20179;-80
2022/09/14 10:15:24;;;;;;;2.90;2.40;;;;;;;23.79;70.43;94730.44;5009974;28;20203;-81
2022/09/14 10:18:18;;;;;;;8.38;2.35;;;;;;;24.01;67.54;94733.03;5021140;28;20217;-81
2022/09/14 10:21:05;;;;;;;5.20;2.28;;;;;;;23.94;65.74;94714.72;5024684;28;20219;-81
2022/09/14 10:23:35;;;;;;;4.80;2.75;;;;;;;23.93;66.25;94713.06;5048646;28;20247;-81
2022/09/14 10:26:09;;;;;;;4.50;2.15;;;;;;;24.01;64.05;94702.03;5045308;28;20210;-81
2022/09/14 10:28:35;;;;;;;3.97;2.00;;;;;;;24.36;62.99;94689.34;5040404;28;20182;-81
2022/09/14 10:31:07;;;;;;;3.65;2.10;;;;;;;24.74;62.72;94696.25;5027860;28;20191;-81
2022/09/14 10:33:34;;;;;;;4.22;2.35;;;;;;;24.95;62.60;94695.31;5026576;28;20182;-81
2022/09/14 10:36:05;;;;;;;2.58;2.00;;;;;;;24.47;62.70;94683.03;5016002;28;20700;-81
2022/09/14 10:38:57;;;;;;;2.97;1.88;;;;;;;24.75;61.59;94682.72;5033432;28;20197;-81
2022/09/14 10:41:44;;;;;;;7.05;2.13;;;;;;;24.88;62.57;94678.78;5020738;28;20188;-81
2022/09/14 10:44:47;;;;;;;3.80;1.55;;;;;;;24.75;60.34;94668.66;5035406;28;20183;-81
2022/09/14 10:47:41;;;;;;;4.03;1.73;;;;;;;24.46;61.74;94653.06;5026980;28;20194;-82
2022/09/14 10:50:26;;;;;;;3.45;1.98;;;;;;;24.86;60.75;94659.66;5038019;28;20198;-82
2022/09/14 10:53:15;;;;;;;2.80;1.90;;;;;;;25.04;59.36;94661.09;5029734;28;20221;-81
2022/09/14 10:56:00;;;;;;;6.00;2.60;;;;;;;24.94;59.56;94655.72;5028937;28;20206;-81
2022/09/14 10:58:40;;;;;;;3.97;2.25;;;;;;;24.90;60.27;94655.44;5029645;28;20191;-82
2022/09/14 11:01:43;;;;;;;4.60;2.13;;;;;;;24.37;61.57;94651.94;5032386;28;20248;-81
2022/09/14 11:04:41;;;;;;;3.60;2.08;;;;;;;24.82;61.56;94647.94;5049927;28;20210;-81
2022/09/14 11:07:12;;;;;;;4.68;2.00;;;;;;;25.08;60.35;94652.34;5037689;28;20187;-81
2022/09/14 11:09:51;;;;;;;4.85;2.08;;;;;;;25.40;59.41;94646.09;5013954;28;20182;-81
2022/09/14 11:12:32;;;;;;;4.32;1.90;;;;;;;25.34;59.25;94644.47;5034513;28;20733;-81
2022/09/14 11:15:22;;;;;;;3.67;2.17;;;;;;;25.51;58.77;94636.28;5010649;28;20206;-81
2022/09/14 11:18:02;;;;;;;2.60;1.98;;;;;;;25.52;58.83;94641.31;5031397;28;20654;-81
2022/09/14 11:20:30;;;;;;;4.72;2.17;;;;;;;25.41;58.59;94629.09;5010079;28;20278;-81
2022/09/14 11:23:13;;;;;;;4.95;1.90;;;;;;;25.10;58.97;94647.59;5011939;28;20195;-81
2022/09/14 11:25:59;;;;;;;4.50;2.60;;;;;;;25.42;58.23;94633.34;5026763;28;20237;-82
2022/09/14 11:28:28;;;;;;;4.70;2.22;;;;;;;25.31;56.78;94629.06;5035684;28;20568;-81
2022/09/14 11:31:15;;;;;;;2.30;1.70;;;;;;;25.48;56.52;94631.50;5040137;28;20207;-81
2022/09/14 11:33:57;;;;;;;6.28;2.45;;;;;;;25.67;57.15;94644.03;5021814;28;20208;-81
2022/09/14 11:36:36;;;;;;;3.45;1.60;;;;;;;25.00;53.88;94639.56;5026442;28;20274;-81
2022/09/14 11:39:26;;;;;;;4.80;2.00;;;;;;;24.85;55.77;94640.28;5016654;28;20183;-81
2022/09/14 11:41:59;;;;;;;3.13;1.80;;;;;;;24.70;56.36;94634.88;5031447;28;20253;-81
2022/09/14 11:44:38;;;;;;;4.43;2.00;;;;;;;24.92;56.38;94637.41;5032561;28;20675;-81
2022/09/14 11:47:07;;;;;;;4.07;2.25;;;;;;;24.65;56.88;94639.34;5009580;28;20183;-81